Time;durP1;ratioP1;P1;durP2;ratioP2;P2;SDS_P1;SDS_P2;PMS_P1;PMS_P2;Temp;Humidity;BMP_temperature;BMP_pressure;BME280_temperature;BME280_humidity;BME280_pressure;Samples;Min_cycle;Max_cycle;Signal;HPM_P1;HPM_P2
2022/07/25 00:01:21;;;;;;;8.97;8.10;;;27.20;99.90;;;;;;5082912;28;20494;-79
2022/07/25 00:03:50;;;;;;;9.40;8.50;;;27.20;99.90;;;;;;5082258;28;20528;-79
2022/07/25 00:06:19;;;;;;;8.80;8.00;;;27.20;99.90;;;;;;5082108;28;20485;-79
2022/07/25 00:08:47;;;;;;;8.40;7.70;;;27.20;99.90;;;;;;5084142;28;20901;-79
2022/07/25 00:11:16;;;;;;;8.40;7.77;;;27.20;99.90;;;;;;5078376;28;20465;-79
2022/07/25 00:13:45;;;;;;;11.00;7.87;;;27.10;99.90;;;;;;5082413;28;20484;-80
2022/07/25 00:16:13;;;;;;;8.30;7.57;;;27.10;99.90;;;;;;5081913;28;20478;-79
2022/07/25 00:18:41;;;;;;;9.10;8.30;;;27.10;99.90;;;;;;5081454;28;21154;-79
2022/07/25 00:21:09;;;;;;;8.03;7.33;;;27.10;99.90;;;;;;5071109;28;20457;-79
2022/07/25 00:23:37;;;;;;;8.20;7.50;;;27.10;99.90;;;;;;5078474;28;20450;-79
2022/07/25 00:26:05;;;;;;;8.47;7.77;;;27.00;99.90;;;;;;5082272;28;20473;-80
2022/07/25 00:28:35;;;;;;;6.87;6.27;;;27.00;99.90;;;;;;5080827;28;20442;-81
2022/07/25 00:31:03;;;;;;;8.47;7.77;;;27.00;99.90;;;;;;5081568;28;21063;-80
2022/07/25 00:33:32;;;;;;;8.10;7.37;;;27.00;99.90;;;;;;5082203;28;20577;-80
2022/07/25 00:36:00;;;;;;;7.80;7.20;;;27.00;99.90;;;;;;5082144;28;20472;-81
2022/07/25 00:38:28;;;;;;;8.70;7.90;;;26.90;99.90;;;;;;5082951;28;20495;-79
2022/07/25 00:40:56;;;;;;;8.90;8.27;;;26.90;99.90;;;;;;5082604;28;20487;-79
2022/07/25 00:43:24;;;;;;;7.93;7.30;;;26.90;99.90;;;;;;5080035;28;20479;-79
2022/07/25 00:45:54;;;;;;;9.07;8.27;;;26.90;99.90;;;;;;5077578;28;21004;-80
2022/07/25 00:48:23;;;;;;;7.57;6.87;;;26.90;99.90;;;;;;5082025;28;20450;-80
2022/07/25 00:50:51;;;;;;;7.57;6.97;;;26.80;99.90;;;;;;5080095;28;20824;-80
2022/07/25 00:53:19;;;;;;;9.67;8.03;;;26.80;99.90;;;;;;5076003;28;20482;-80
2022/07/25 00:55:48;;;;;;;8.43;7.63;;;26.70;99.90;;;;;;5081907;28;20464;-79
2022/07/25 00:58:17;;;;;;;8.27;7.47;;;26.70;99.90;;;;;;5076048;28;20466;-79
2022/07/25 01:00:46;;;;;;;9.23;8.43;;;26.60;99.90;;;;;;5078233;28;20449;-80
2022/07/25 01:03:16;;;;;;;8.33;7.63;;;26.60;99.90;;;;;;5079579;28;23235;-80
2022/07/25 01:05:44;;;;;;;9.17;8.23;;;26.60;99.90;;;;;;5070042;28;20434;-79
2022/07/25 01:08:19;;;;;;;8.90;8.20;;;26.60;99.90;;;;;;5079484;28;20468;-79
2022/07/25 01:10:48;;;;;;;7.87;7.27;;;26.70;99.90;;;;;;5084151;28;20473;-79
2022/07/25 01:13:17;;;;;;;8.53;7.73;;;26.60;99.90;;;;;;5078454;28;21035;-79
2022/07/25 01:15:47;;;;;;;7.77;7.17;;;26.60;99.90;;;;;;5081481;28;20445;-79
2022/07/25 01:18:17;;;;;;;9.33;8.50;;;26.60;99.90;;;;;;5078208;28;21013;-79
2022/07/25 01:20:47;;;;;;;8.40;7.70;;;26.60;99.90;;;;;;5081573;28;20462;-79
2022/07/25 01:23:15;;;;;;;8.60;7.80;;;26.60;99.90;;;;;;5078741;28;20466;-79
2022/07/25 01:25:43;;;;;;;8.73;7.87;;;26.60;99.90;;;;;;5077610;28;20446;-79
2022/07/25 01:28:12;;;;;;;8.17;7.57;;;26.50;99.90;;;;;;5079236;28;20461;-79
2022/07/25 01:30:40;;;;;;;7.87;7.17;;;26.60;99.90;;;;;;5082858;28;20457;-79
2022/07/25 01:33:08;;;;;;;7.63;6.93;;;26.60;99.90;;;;;;5078313;28;20547;-79
2022/07/25 01:35:37;;;;;;;8.03;7.23;;;26.50;99.90;;;;;;5081208;28;20487;-79
2022/07/25 01:38:12;;;;;;;7.27;6.67;;;26.50;99.90;;;;;;5083572;28;20888;-80
2022/07/25 01:40:41;;;;;;;8.73;6.40;;;26.60;99.90;;;;;;5087064;28;20449;-79
2022/07/25 01:43:10;;;;;;;7.67;7.03;;;26.50;99.90;;;;;;5079226;28;20495;-78
2022/07/25 01:45:38;;;;;;;7.53;6.87;;;26.60;99.90;;;;;;5079978;28;20462;-79
2022/07/25 01:48:07;;;;;;;6.80;6.20;;;26.50;99.90;;;;;;5088074;28;21032;-79
2022/07/25 01:50:35;;;;;;;7.23;6.50;;;26.50;99.90;;;;;;5085248;28;20461;-80
2022/07/25 01:53:03;;;;;;;8.10;7.30;;;26.50;99.90;;;;;;5086289;28;20457;-79
2022/07/25 01:55:33;;;;;;;7.97;7.27;;;26.50;99.90;;;;;;5083832;28;20461;-79
2022/07/25 01:58:01;;;;;;;7.37;6.60;;;26.50;99.90;;;;;;5083549;28;20988;-79
2022/07/25 02:00:29;;;;;;;7.80;7.03;;;26.50;99.90;;;;;;5085976;28;20457;-79
2022/07/25 02:05:43;;;;;;;7.03;6.47;;;26.40;99.90;;;;;;5082076;28;20449;-79
2022/07/25 02:08:11;;;;;;;7.30;6.70;;;26.40;99.90;;;;;;5084390;28;20462;-79
2022/07/25 02:10:41;;;;;;;7.73;7.03;;;26.40;99.90;;;;;;5084751;28;20465;-80
2022/07/25 02:13:09;;;;;;;7.83;7.20;;;26.30;99.90;;;;;;5080440;28;20826;-80
2022/07/25 02:15:37;;;;;;;7.30;6.60;;;26.40;99.90;;;;;;5083011;28;20453;-78
2022/07/25 02:18:05;;;;;;;8.70;7.47;;;26.30;99.90;;;;;;5085187;28;20556;-80
2022/07/25 02:20:33;;;;;;;7.47;6.83;;;26.30;99.90;;;;;;5084987;28;20973;-79
2022/07/25 02:23:02;;;;;;;6.57;5.97;;;26.20;99.90;;;;;;5082623;28;20453;-79
2022/07/25 02:25:30;;;;;;;7.53;6.93;;;26.10;99.90;;;;;;5082675;28;20476;-79
2022/07/25 02:28:00;;;;;;;7.80;7.13;;;26.10;99.90;;;;;;5083649;28;21019;-79
2022/07/25 02:30:28;;;;;;;7.70;7.00;;;26.10;99.90;;;;;;5080819;28;20442;-80
2022/07/25 02:32:56;;;;;;;7.07;6.57;;;26.10;99.90;;;;;;5086506;28;20524;-79
2022/07/25 02:35:25;;;;;;;7.40;6.80;;;26.10;99.90;;;;;;5079583;28;21001;-79
2022/07/25 02:37:53;;;;;;;7.90;7.10;;;26.10;99.90;;;;;;5084641;28;20474;-79
2022/07/25 02:40:21;;;;;;;6.90;6.20;;;26.10;99.90;;;;;;5082659;28;20459;-79
2022/07/25 02:42:49;;;;;;;7.50;6.90;;;26.10;99.90;;;;;;5085295;28;20450;-80
2022/07/25 02:45:19;;;;;;;7.10;6.50;;;26.10;99.90;;;;;;5077754;28;20446;-79
2022/07/25 02:47:47;;;;;;;7.40;6.80;;;26.10;99.90;;;;;;5084893;28;20477;-80
2022/07/25 02:50:15;;;;;;;8.17;6.50;;;26.10;99.90;;;;;;5081142;28;20499;-78
2022/07/25 02:52:44;;;;;;;6.83;6.23;;;26.10;99.90;;;;;;5084643;28;20458;-79
2022/07/25 02:55:12;;;;;;;7.30;6.70;;;26.10;99.90;;;;;;5078613;28;20470;-79
2022/07/25 02:57:40;;;;;;;6.47;5.87;;;26.10;99.90;;;;;;5085744;28;21364;-79
2022/07/25 03:00:09;;;;;;;7.47;6.77;;;26.00;99.90;;;;;;5081689;28;20446;-79
2022/07/25 03:02:39;;;;;;;7.20;6.60;;;26.00;99.90;;;;;;5083159;28;20446;-79
2022/07/25 03:05:09;;;;;;;7.80;7.00;;;26.00;99.90;;;;;;5078382;28;20446;-80
2022/07/25 03:07:37;;;;;;;7.00;6.40;;;25.90;99.90;;;;;;5085908;28;20474;-79
2022/07/25 03:10:07;;;;;;;7.47;6.70;;;25.90;99.90;;;;;;5080323;28;20470;-79
2022/07/25 03:12:38;;;;;;;7.23;6.53;;;25.90;99.90;;;;;;5080665;28;20458;-80
2022/07/25 03:15:08;;;;;;;6.50;5.90;;;25.90;99.90;;;;;;5084878;28;20504;-79
2022/07/25 03:17:36;;;;;;;7.40;6.70;;;25.90;99.90;;;;;;5091987;28;20469;-80
2022/07/25 03:20:07;;;;;;;7.40;6.70;;;25.90;99.90;;;;;;5083638;28;20450;-80
2022/07/25 03:22:36;;;;;;;7.43;6.83;;;25.90;99.90;;;;;;5083401;28;20866;-80
2022/07/25 03:25:05;;;;;;;8.40;7.60;;;25.90;99.90;;;;;;5082041;28;20474;-79
2022/07/25 03:27:42;;;;;;;8.30;7.50;;;25.90;99.90;;;;;;5082555;28;20477;-79
2022/07/25 03:30:11;;;;;;;8.20;7.53;;;25.90;99.90;;;;;;5078514;28;21029;-80
2022/07/25 03:32:40;;;;;;;7.70;7.03;;;25.80;99.90;;;;;;5083293;28;20456;-79
2022/07/25 03:35:10;;;;;;;6.97;6.43;;;25.80;99.90;;;;;;5081020;28;20466;-81
2022/07/25 03:37:38;;;;;;;7.67;6.90;;;25.80;99.90;;;;;;5084661;28;20470;-80
2022/07/25 03:40:08;;;;;;;8.23;7.53;;;25.80;99.90;;;;;;5082621;28;20450;-80
2022/07/25 03:42:36;;;;;;;7.20;6.60;;;25.70;99.90;;;;;;5082672;28;20469;-79
2022/07/25 03:45:04;;;;;;;7.30;6.57;;;25.70;99.90;;;;;;5076204;28;20506;-79
2022/07/25 03:47:33;;;;;;;7.83;7.20;;;25.70;99.90;;;;;;5082777;28;20458;-79
2022/07/25 03:50:01;;;;;;;8.13;7.43;;;25.70;99.90;;;;;;5082187;28;20454;-81
2022/07/25 03:52:30;;;;;;;8.03;7.43;;;25.70;99.90;;;;;;5082054;28;21069;-79
2022/07/25 03:54:58;;;;;;;7.93;7.23;;;25.70;99.90;;;;;;5083028;28;20912;-80
2022/07/25 03:57:27;;;;;;;6.87;6.17;;;25.70;99.90;;;;;;5082929;28;20484;-79
2022/07/25 03:59:55;;;;;;;7.93;7.30;;;25.70;99.90;;;;;;5085021;28;20804;-79
2022/07/25 04:02:23;;;;;;;10.93;8.23;;;25.70;99.90;;;;;;5077039;28;20460;-79
2022/07/25 04:04:51;;;;;;;8.07;7.37;;;25.60;99.90;;;;;;5082947;28;20445;-79
2022/07/25 04:07:19;;;;;;;8.37;7.50;;;25.60;99.90;;;;;;5077973;28;20477;-81
2022/07/25 04:09:49;;;;;;;7.80;7.13;;;25.60;99.90;;;;;;5082756;28;20953;-79
2022/07/25 04:12:17;;;;;;;9.20;8.40;;;25.50;99.90;;;;;;5085021;28;20518;-80
2022/07/25 04:14:45;;;;;;;8.10;7.40;;;25.50;99.90;;;;;;5081904;28;20477;-79
2022/07/25 04:17:13;;;;;;;8.00;6.70;;;25.50;99.90;;;;;;5078796;28;20473;-79
2022/07/25 04:19:42;;;;;;;9.13;8.23;;;25.50;99.90;;;;;;5085670;28;20442;-79
2022/07/25 04:22:11;;;;;;;8.23;7.53;;;25.50;99.90;;;;;;5085282;28;20578;-79
2022/07/25 04:24:39;;;;;;;8.50;7.80;;;25.50;99.90;;;;;;5088137;28;20484;-79
2022/07/25 04:27:08;;;;;;;8.43;7.73;;;25.60;99.90;;;;;;5087012;28;20473;-78
2022/07/25 04:29:37;;;;;;;8.10;7.40;;;25.60;99.90;;;;;;5080934;28;20458;-80
2022/07/25 04:32:06;;;;;;;8.13;7.50;;;25.50;99.90;;;;;;5082870;28;20445;-80
2022/07/25 04:34:34;;;;;;;7.27;6.57;;;25.50;99.90;;;;;;5080927;28;20842;-73
2022/07/25 04:37:02;;;;;;;8.30;7.60;;;25.40;99.90;;;;;;5081712;28;20484;-73
2022/07/25 04:39:30;;;;;;;9.03;8.23;;;25.30;99.90;;;;;;5078237;28;20845;-73
2022/07/25 04:41:59;;;;;;;9.13;8.33;;;25.10;99.90;;;;;;5073531;28;20446;-71
2022/07/25 04:44:28;;;;;;;8.77;7.97;;;25.00;99.90;;;;;;5076117;28;20458;-72
2022/07/25 04:46:56;;;;;;;8.70;7.13;;;24.90;99.90;;;;;;5091727;28;20493;-73
2022/07/25 04:49:24;;;;;;;8.07;7.27;;;25.00;99.90;;;;;;5079808;28;20436;-72
2022/07/25 04:51:53;;;;;;;8.80;8.00;;;25.00;99.90;;;;;;5082909;28;20445;-72
2022/07/25 04:54:21;;;;;;;8.20;7.40;;;25.00;99.90;;;;;;5076622;28;20506;-72
2022/07/25 04:56:49;;;;;;;8.37;7.57;;;25.10;99.90;;;;;;5077977;28;20489;-72
2022/07/25 04:59:17;;;;;;;9.57;8.67;;;25.10;99.90;;;;;;5076874;28;20442;-72
2022/07/25 05:01:46;;;;;;;10.13;9.23;;;25.20;99.90;;;;;;5080624;28;20457;-72
2022/07/25 05:04:14;;;;;;;9.00;8.10;;;25.30;99.90;;;;;;5078084;28;20468;-72
2022/07/25 05:06:42;;;;;;;9.00;8.20;;;25.30;99.90;;;;;;5075561;28;20519;-74
2022/07/25 05:09:11;;;;;;;8.30;7.57;;;25.30;99.90;;;;;;5077056;28;20442;-72
2022/07/25 05:11:39;;;;;;;9.70;7.70;;;25.40;99.90;;;;;;5080382;28;20450;-73
2022/07/25 05:14:14;;;;;;;7.67;7.07;;;25.30;99.90;;;;;;5076966;28;20507;-74
2022/07/25 05:16:43;;;;;;;8.73;8.03;;;25.30;99.90;;;;;;5081746;28;20494;-73
2022/07/25 05:19:12;;;;;;;9.70;8.60;;;25.30;99.90;;;;;;5076352;28;20457;-73
2022/07/25 05:21:41;;;;;;;8.50;7.70;;;25.40;99.90;;;;;;5075285;28;20445;-82
2022/07/25 05:24:09;;;;;;;7.73;6.93;;;25.50;99.90;;;;;;5075909;28;20824;-84
2022/07/25 05:26:37;;;;;;;9.40;8.60;;;25.50;99.90;;;;;;5079075;28;20881;-83
2022/07/25 05:29:06;;;;;;;8.57;7.77;;;25.60;99.90;;;;;;5081104;28;20446;-81
2022/07/25 05:31:34;;;;;;;8.77;7.87;;;25.70;99.90;;;;;;5078364;28;20442;-82
2022/07/25 05:34:05;;;;;;;7.83;7.00;;;25.80;99.90;;;;;;5076263;28;20462;-82
2022/07/25 05:36:35;;;;;;;9.00;8.20;;;25.90;99.90;;;;;;5073755;28;20608;-83
2022/07/25 05:39:04;;;;;;;7.97;7.30;;;26.00;99.90;;;;;;5077836;28;20453;-83
2022/07/25 05:41:32;;;;;;;7.97;7.27;;;26.00;99.90;;;;;;5080799;28;20455;-82
2022/07/25 05:44:01;;;;;;;8.50;7.53;;;26.10;99.90;;;;;;5082408;28;20468;-82
2022/07/25 05:46:29;;;;;;;8.37;7.67;;;26.10;99.90;;;;;;5079173;28;20461;-81
2022/07/25 05:48:58;;;;;;;8.83;7.77;;;26.10;99.90;;;;;;5082217;28;20507;-81
2022/07/25 05:51:26;;;;;;;8.53;7.73;;;26.10;99.90;;;;;;5078792;28;20552;-81
2022/07/25 05:53:56;;;;;;;8.33;7.53;;;26.10;99.90;;;;;;5078736;28;20453;-81
2022/07/25 05:56:24;;;;;;;7.70;6.80;;;26.10;99.90;;;;;;5079556;28;20988;-82
2022/07/25 05:58:53;;;;;;;7.67;6.97;;;26.10;99.90;;;;;;5081558;28;20694;-82
2022/07/25 06:01:21;;;;;;;7.27;6.67;;;26.00;99.90;;;;;;5080980;28;20454;-81
2022/07/25 06:03:49;;;;;;;9.00;8.13;;;26.10;99.90;;;;;;5082314;28;20454;-83
2022/07/25 06:06:17;;;;;;;8.63;7.83;;;26.10;99.90;;;;;;5081810;28;20469;-82
2022/07/25 06:08:46;;;;;;;7.70;7.10;;;26.10;99.90;;;;;;5078422;28;20485;-82
2022/07/25 06:11:16;;;;;;;7.20;6.60;;;26.20;99.90;;;;;;5075139;28;21070;-82
2022/07/25 06:13:44;;;;;;;11.37;7.57;;;26.30;99.90;;;;;;5081455;28;20477;-82
2022/07/25 06:16:13;;;;;;;8.13;7.47;;;26.20;99.90;;;;;;5082230;28;20487;-82
2022/07/25 06:18:42;;;;;;;7.80;7.10;;;26.20;99.90;;;;;;5080439;28;20450;-82
2022/07/25 06:21:10;;;;;;;8.17;7.37;;;26.10;99.90;;;;;;5080367;28;20457;-81
2022/07/25 06:23:38;;;;;;;8.20;7.43;;;26.20;99.90;;;;;;5084042;28;20454;-82
2022/07/25 06:26:09;;;;;;;8.63;7.70;;;26.20;99.90;;;;;;5084084;28;21076;-82
2022/07/25 06:28:39;;;;;;;8.37;6.80;;;26.30;99.90;;;;;;5083315;28;20489;-82
2022/07/25 06:31:07;;;;;;;6.77;6.27;;;26.40;99.90;;;;;;5085795;28;20454;-83
2022/07/25 06:33:35;;;;;;;7.10;6.50;;;26.40;99.90;;;;;;5080659;28;20725;-81
2022/07/25 06:36:05;;;;;;;7.67;7.00;;;26.50;99.90;;;;;;5078513;28;21349;-82
2022/07/25 06:38:33;;;;;;;7.70;7.10;;;26.60;99.90;;;;;;5075050;28;20458;-83
2022/07/25 06:41:03;;;;;;;9.20;7.53;;;26.60;99.90;;;;;;5086477;28;21342;-82
2022/07/25 06:43:32;;;;;;;8.70;7.90;;;26.70;99.90;;;;;;5082559;28;20467;-83
2022/07/25 06:46:01;;;;;;;8.70;7.03;;;26.70;99.90;;;;;;5078499;28;20446;-82
2022/07/25 06:48:30;;;;;;;7.03;6.33;;;26.70;99.90;;;;;;5084749;28;20456;-83
2022/07/25 06:50:58;;;;;;;7.60;6.83;;;26.80;99.90;;;;;;5081331;28;20454;-82
2022/07/25 06:53:27;;;;;;;8.13;7.43;;;26.80;99.90;;;;;;5085303;28;20867;-82
2022/07/25 06:55:55;;;;;;;7.30;6.60;;;27.00;99.90;;;;;;5081359;28;20458;-83
2022/07/25 06:58:23;;;;;;;7.13;6.53;;;27.00;99.90;;;;;;5082916;28;20477;-82
2022/07/25 07:00:53;;;;;;;7.77;6.97;;;27.20;99.90;;;;;;5086866;28;20475;-83
2022/07/25 07:03:23;;;;;;;7.37;6.63;;;27.40;99.90;;;;;;5082517;28;20531;-81
2022/07/25 07:05:51;;;;;;;7.27;6.67;;;27.50;99.90;;;;;;5087386;28;20458;-82
2022/07/25 07:08:20;;;;;;;7.40;6.70;;;27.70;99.90;;;;;;5080949;28;20484;-83
2022/07/25 07:10:48;;;;;;;7.27;6.77;;;27.80;99.90;;;;;;5085973;28;20454;-81
2022/07/25 07:13:18;;;;;;;8.27;7.57;;;27.90;99.90;;;;;;5085916;28;20452;-82
2022/07/25 07:15:51;;;;;;;7.83;7.10;;;28.10;99.90;;;;;;5081508;28;20456;-82
2022/07/25 07:18:22;;;;;;;7.53;6.93;;;28.20;99.90;;;;;;5082924;28;20927;-83
2022/07/25 07:20:52;;;;;;;8.87;8.13;;;28.30;99.90;;;;;;5086903;28;20458;-82
2022/07/25 07:23:21;;;;;;;8.70;7.30;;;28.30;99.90;;;;;;5079132;28;20458;-81
2022/07/25 07:25:52;;;;;;;8.80;8.00;;;28.30;99.90;;;;;;5084335;28;20446;-81
2022/07/25 07:28:20;;;;;;;8.63;7.70;;;28.40;99.90;;;;;;5084249;28;20458;-82
2022/07/25 07:30:49;;;;;;;8.90;7.40;;;28.50;99.90;;;;;;5082187;28;20467;-82
2022/07/25 07:33:40;;;;;;;8.83;8.13;;;28.50;99.90;;;;;;5079670;28;20473;-81
2022/07/25 07:36:10;;;;;;;8.77;7.97;;;28.60;99.90;;;;;;5082967;28;20469;-82
2022/07/25 07:38:39;;;;;;;8.53;7.73;;;28.60;99.90;;;;;;5081738;28;20480;-82
2022/07/25 07:41:08;;;;;;;7.90;7.17;;;28.60;99.90;;;;;;5085706;28;20446;-82
2022/07/25 07:43:37;;;;;;;8.00;7.40;;;28.60;99.90;;;;;;5082743;28;20458;-81
2022/07/25 07:46:05;;;;;;;9.30;8.60;;;28.60;99.90;;;;;;5081978;28;20454;-81
2022/07/25 07:48:34;;;;;;;8.70;8.10;;;28.60;99.90;;;;;;5082919;28;20993;-82
2022/07/25 07:51:05;;;;;;;7.60;7.00;;;28.60;99.90;;;;;;5080675;28;20445;-82
2022/07/25 07:56:19;;;;;;;8.80;8.07;;;28.70;99.90;;;;;;5080071;28;20548;-82
2022/07/25 07:58:47;;;;;;;8.23;7.53;;;28.70;99.90;;;;;;5083714;28;20982;-82
2022/07/25 08:01:16;;;;;;;8.90;8.20;;;28.70;99.90;;;;;;5078588;28;21007;-81
2022/07/25 08:03:45;;;;;;;7.10;6.50;;;28.70;99.90;;;;;;5082252;28;20456;-82
2022/07/25 08:06:16;;;;;;;7.87;7.37;;;28.70;99.90;;;;;;5082171;28;20905;-81
2022/07/25 08:08:44;;;;;;;7.83;7.23;;;28.70;99.90;;;;;;5088784;28;20544;-82
2022/07/25 08:11:13;;;;;;;7.20;6.47;;;28.70;99.90;;;;;;5079178;28;20568;-82
2022/07/25 08:13:42;;;;;;;8.50;7.80;;;28.80;99.90;;;;;;5088959;28;20489;-82
2022/07/25 08:16:12;;;;;;;8.93;8.20;;;28.80;99.90;;;;;;5085305;28;21012;-82
2022/07/25 08:18:41;;;;;;;7.40;6.80;;;28.80;99.90;;;;;;5079499;28;20473;-81
2022/07/25 08:21:11;;;;;;;8.57;7.87;;;28.80;99.90;;;;;;5079030;28;20449;-81
2022/07/25 08:23:41;;;;;;;8.07;7.37;;;28.80;99.90;;;;;;5081682;28;20446;-82
2022/07/25 08:26:09;;;;;;;7.97;7.27;;;28.80;99.90;;;;;;5082438;28;20544;-82
2022/07/25 08:28:37;;;;;;;8.10;7.40;;;28.90;99.90;;;;;;5078848;28;20464;-82
2022/07/25 08:31:07;;;;;;;8.20;7.50;;;28.90;99.90;;;;;;5086556;28;20519;-82
2022/07/25 08:33:35;;;;;;;7.80;7.10;;;28.90;99.90;;;;;;5085558;28;20465;-82
2022/07/25 08:36:04;;;;;;;8.10;7.50;;;28.90;99.90;;;;;;5087743;28;20468;-82
2022/07/25 08:38:34;;;;;;;9.13;8.23;;;28.90;99.90;;;;;;5085600;28;20543;-82
2022/07/25 08:41:04;;;;;;;9.00;8.30;;;28.90;99.90;;;;;;5088589;28;20945;-83
2022/07/25 08:43:33;;;;;;;8.03;7.43;;;29.00;99.90;;;;;;5083619;28;20485;-82
2022/07/25 08:46:02;;;;;;;8.00;7.40;;;29.00;99.90;;;;;;5078306;28;20446;-82
2022/07/25 08:48:31;;;;;;;8.40;7.67;;;29.00;99.90;;;;;;5080707;28;20503;-81
2022/07/25 08:50:59;;;;;;;7.70;7.00;;;29.10;99.90;;;;;;5083119;28;20446;-82
2022/07/25 08:53:29;;;;;;;7.47;6.87;;;29.10;99.90;;;;;;5078458;28;20472;-82
2022/07/25 08:56:01;;;;;;;7.40;6.80;;;29.20;99.90;;;;;;5078785;28;20535;-81
2022/07/25 08:58:39;;;;;;;8.00;7.20;;;29.20;99.90;;;;;;5084620;28;20817;-81
2022/07/25 09:01:07;;;;;;;8.93;8.13;;;29.20;99.90;;;;;;5084254;28;20489;-81
2022/07/25 09:03:37;;;;;;;7.50;6.90;;;29.30;99.90;;;;;;5085395;28;20457;-81
2022/07/25 09:06:15;;;;;;;7.43;6.77;;;29.40;99.90;;;;;;5088553;28;20453;-81
2022/07/25 09:08:51;;;;;;;7.93;7.33;;;29.30;99.90;;;;;;5084873;28;20514;-83
2022/07/25 09:11:27;;;;;;;7.67;7.03;;;29.40;99.90;;;;;;5078359;28;20470;-82
2022/07/25 09:14:02;;;;;;;8.20;7.60;;;29.30;99.90;;;;;;5077109;28;20453;-82
2022/07/25 09:16:34;;;;;;;8.07;7.37;;;29.30;99.90;;;;;;5074618;28;20469;-83
2022/07/25 09:19:09;;;;;;;7.33;6.73;;;29.40;99.90;;;;;;5077361;28;20529;-82
2022/07/25 09:21:38;;;;;;;7.17;6.53;;;29.40;99.90;;;;;;5083303;28;20461;-83
2022/07/25 09:24:15;;;;;;;8.97;8.17;;;29.40;99.90;;;;;;5086446;28;20449;-82
2022/07/25 09:26:49;;;;;;;9.63;8.73;;;29.40;99.90;;;;;;5086327;28;20473;-81
2022/07/25 09:29:21;;;;;;;8.77;7.97;;;29.40;99.90;;;;;;5084616;28;20490;-81
2022/07/25 09:31:51;;;;;;;8.10;7.43;;;29.40;99.90;;;;;;5081314;28;20450;-82
2022/07/25 09:34:35;;;;;;;7.60;7.10;;;29.50;99.90;;;;;;5084988;28;20465;-82
2022/07/25 09:37:04;;;;;;;7.70;7.00;;;29.50;99.90;;;;;;5085359;28;20470;-83
2022/07/25 09:39:34;;;;;;;7.47;6.87;;;29.50;99.90;;;;;;5083481;28;20554;-82
2022/07/25 09:42:03;;;;;;;7.90;7.30;;;29.50;99.90;;;;;;5087151;28;20453;-82
2022/07/25 09:44:33;;;;;;;8.60;7.80;;;29.50;99.90;;;;;;5091616;28;20453;-83
2022/07/25 09:47:10;;;;;;;6.60;6.00;;;29.60;99.90;;;;;;5086434;28;20894;-82
2022/07/25 09:49:43;;;;;;;6.93;5.70;;;29.60;99.90;;;;;;5082544;28;20465;-81
2022/07/25 09:52:12;;;;;;;7.00;6.40;;;29.60;99.90;;;;;;5074003;28;20461;-81
2022/07/25 09:54:41;;;;;;;7.97;7.37;;;29.80;99.90;;;;;;5085287;28;20556;-81
2022/07/25 09:57:10;;;;;;;8.00;7.43;;;29.90;99.90;;;;;;5079728;28;20986;-81
2022/07/25 09:59:41;;;;;;;7.33;6.83;;;30.10;99.90;;;;;;5087390;28;20558;-82
2022/07/25 10:02:14;;;;;;;5.60;5.10;;;30.20;99.90;;;;;;5078290;28;20453;-82
2022/07/25 10:04:47;;;;;;;4.83;4.50;;;30.40;99.90;;;;;;5082307;28;20453;-82
2022/07/25 10:07:19;;;;;;;3.57;3.27;;;30.50;99.90;;;;;;5081443;28;20480;-81
2022/07/25 10:09:50;;;;;;;3.47;3.20;;;30.60;99.90;;;;;;5105572;28;20497;-82
2022/07/25 10:12:21;;;;;;;3.30;3.10;;;30.70;99.90;;;;;;5087062;28;20464;-82
2022/07/25 10:15:09;;;;;;;3.87;3.47;;;30.80;99.90;;;;;;5083905;28;20457;-82
2022/07/25 10:17:41;;;;;;;4.50;4.10;;;30.40;99.90;;;;;;5079137;28;20492;-81
2022/07/25 10:20:10;;;;;;;3.73;3.43;;;31.00;99.90;;;;;;5080710;28;20464;-81
2022/07/25 10:22:40;;;;;;;2.97;2.77;;;31.10;99.90;;;;;;5087899;28;21025;-82
2022/07/25 10:25:26;;;;;;;2.90;2.70;;;31.10;99.90;;;;;;5083120;28;20448;-81
2022/07/25 10:27:59;;;;;;;2.70;2.50;;;31.10;99.90;;;;;;5083869;28;21031;-82
2022/07/25 10:30:35;;;;;;;2.97;2.77;;;31.30;99.90;;;;;;5080101;28;20458;-82
2022/07/25 10:33:05;;;;;;;3.23;2.97;;;31.30;99.90;;;;;;5082519;28;20476;-81
2022/07/25 10:35:33;;;;;;;3.40;3.20;;;31.40;99.90;;;;;;5084902;28;20434;-82
2022/07/25 10:38:05;;;;;;;3.63;3.33;;;31.40;99.90;;;;;;5083614;28;20477;-81
2022/07/25 10:40:37;;;;;;;2.87;2.63;;;31.50;99.90;;;;;;5087052;28;20453;-82
2022/07/25 10:43:18;;;;;;;3.50;2.50;;;31.40;99.90;;;;;;5089007;28;20950;-81
2022/07/25 10:45:52;;;;;;;3.30;3.00;;;31.40;99.90;;;;;;5082611;28;20810;-81
2022/07/25 10:48:23;;;;;;;3.23;3.03;;;31.40;99.90;;;;;;5086672;28;20448;-82
2022/07/25 10:50:58;;;;;;;3.33;2.97;;;31.50;99.90;;;;;;5083271;28;20801;-81
2022/07/25 10:53:37;;;;;;;3.73;3.43;;;31.50;99.90;;;;;;5078839;28;20461;-82
2022/07/25 10:56:10;;;;;;;3.30;3.10;;;31.60;99.90;;;;;;5086625;28;20478;-82
2022/07/25 10:58:50;;;;;;;3.83;3.53;;;31.60;99.90;;;;;;5085595;28;20479;-81
2022/07/25 11:01:24;;;;;;;3.10;2.90;;;31.60;99.90;;;;;;5084535;28;20975;-82
2022/07/25 11:03:54;;;;;;;3.40;3.20;;;31.60;99.90;;;;;;5082040;28;20485;-82
2022/07/25 11:06:34;;;;;;;3.50;3.30;;;31.60;99.90;;;;;;5081567;28;20466;-82
2022/07/25 11:09:03;;;;;;;2.73;2.47;;;31.70;99.90;;;;;;5081087;28;20446;-82
2022/07/25 11:11:36;;;;;;;3.90;3.60;;;31.70;99.90;;;;;;5079949;28;20820;-82
2022/07/25 11:14:06;;;;;;;3.90;3.50;;;31.70;99.90;;;;;;5082366;28;20450;-81
2022/07/25 11:16:35;;;;;;;3.70;3.40;;;31.70;99.90;;;;;;5083171;28;20474;-82
2022/07/25 11:19:04;;;;;;;3.13;2.93;;;31.80;99.90;;;;;;5077265;28;20534;-82
2022/07/25 11:21:43;;;;;;;3.80;3.60;;;31.80;99.90;;;;;;5086351;28;20449;-82
2022/07/25 11:24:11;;;;;;;3.83;3.47;;;31.90;99.90;;;;;;5083196;28;20457;-82
2022/07/25 11:26:51;;;;;;;3.80;3.57;;;31.80;99.90;;;;;;5087153;28;20611;-81
2022/07/25 11:29:20;;;;;;;3.20;3.00;;;31.90;99.90;;;;;;5078478;28;20438;-82
2022/07/25 11:31:55;;;;;;;3.90;3.60;;;32.00;99.90;;;;;;5085014;28;20458;-82
2022/07/25 11:34:26;;;;;;;5.30;3.47;;;31.90;99.90;;;;;;5078077;28;20445;-80
2022/07/25 11:36:56;;;;;;;3.87;3.67;;;31.90;99.90;;;;;;5084343;28;20501;-81
2022/07/25 11:39:26;;;;;;;3.50;3.20;;;31.90;99.90;;;;;;5085213;28;20474;-82
2022/07/25 11:42:02;;;;;;;4.20;3.90;;;31.90;99.90;;;;;;5087248;28;20457;-82
2022/07/25 11:44:31;;;;;;;3.80;3.50;;;31.90;99.90;;;;;;5078306;28;20461;-82
2022/07/25 11:47:02;;;;;;;3.90;3.40;;;31.90;99.90;;;;;;5084857;28;20462;-81
2022/07/25 11:49:30;;;;;;;3.87;3.57;;;32.00;99.90;;;;;;5076455;28;20628;-82
2022/07/25 11:51:58;;;;;;;3.87;3.67;;;32.10;99.90;;;;;;5081056;28;20453;-81
2022/07/25 11:54:27;;;;;;;4.07;3.80;;;32.10;99.90;;;;;;5085709;28;20445;-83
2022/07/25 11:56:55;;;;;;;4.23;3.93;;;32.10;99.90;;;;;;5085107;28;20599;-83
2022/07/25 11:59:24;;;;;;;3.80;3.50;;;32.20;99.90;;;;;;5086084;28;20465;-81
2022/07/25 12:01:52;;;;;;;3.60;3.30;;;32.20;99.90;;;;;;5084783;28;20458;-82
2022/07/25 12:04:22;;;;;;;4.87;4.47;;;32.30;99.90;;;;;;5085747;28;20973;-81
2022/07/25 12:06:50;;;;;;;4.70;4.20;;;32.30;99.90;;;;;;5086287;28;20565;-83
2022/07/25 12:09:20;;;;;;;5.23;4.20;;;32.20;99.90;;;;;;5089318;28;20445;-83
2022/07/25 12:11:49;;;;;;;3.93;3.63;;;32.20;99.90;;;;;;5089955;28;20452;-81
2022/07/25 12:14:17;;;;;;;4.43;4.13;;;32.20;99.90;;;;;;5089866;28;20458;-83
2022/07/25 12:16:46;;;;;;;3.90;3.60;;;32.20;99.90;;;;;;5082838;28;20466;-81
2022/07/25 12:19:22;;;;;;;3.80;3.50;;;32.30;99.90;;;;;;5086806;28;20830;-82
2022/07/25 12:21:50;;;;;;;4.00;3.70;;;32.40;99.90;;;;;;5091078;28;20570;-81
2022/07/25 12:24:19;;;;;;;3.60;3.30;;;32.40;99.90;;;;;;5090891;28;20557;-84
2022/07/25 12:26:47;;;;;;;3.77;3.57;;;32.30;99.90;;;;;;5084123;28;21294;-82
2022/07/25 12:29:15;;;;;;;3.50;3.30;;;32.40;99.90;;;;;;5088471;28;20460;-84
2022/07/25 12:31:43;;;;;;;3.23;2.93;;;32.40;99.90;;;;;;5084431;28;20484;-82
2022/07/25 12:34:12;;;;;;;3.20;3.00;;;32.50;99.90;;;;;;5082976;28;20462;-82
2022/07/25 12:36:43;;;;;;;3.70;3.37;;;32.60;99.90;;;;;;5078074;28;21076;-82
2022/07/25 12:39:12;;;;;;;3.93;3.63;;;32.60;99.90;;;;;;5078083;28;20485;-81
2022/07/25 12:41:41;;;;;;;3.73;3.43;;;32.60;99.90;;;;;;5079827;28;20826;-81
2022/07/25 12:44:10;;;;;;;4.37;4.00;;;32.60;99.90;;;;;;5081696;28;20450;-84
2022/07/25 12:46:40;;;;;;;5.00;4.60;;;32.50;99.90;;;;;;5073462;28;20488;-81
2022/07/25 12:49:16;;;;;;;3.93;3.63;;;32.50;99.90;;;;;;5076765;28;20448;-82
2022/07/25 12:51:46;;;;;;;3.60;3.30;;;32.50;99.90;;;;;;5078475;28;20512;-82
2022/07/25 12:54:16;;;;;;;3.97;3.67;;;32.60;99.90;;;;;;5084722;28;20455;-81
2022/07/25 12:56:50;;;;;;;4.87;3.57;;;32.50;99.90;;;;;;5079713;28;20847;-82
2022/07/25 12:59:18;;;;;;;4.13;3.83;;;32.40;99.90;;;;;;5085294;28;20478;-82
2022/07/25 13:01:47;;;;;;;4.50;4.10;;;32.50;99.90;;;;;;5086753;28;20466;-82
2022/07/25 13:04:15;;;;;;;4.97;4.67;;;32.50;99.90;;;;;;5094087;28;20550;-81